sensor_id;sensor_type;location;lat;lon;timestamp;temperature;humidity
15328;DHT22;7764;51.430;6.840;2023-03-08T00:01:17;2.70;99.90
15328;DHT22;7764;51.430;6.840;2023-03-08T00:03:45;2.70;99.90
15328;DHT22;7764;51.430;6.840;2023-03-08T00:06:13;2.70;99.90
15328;DHT22;7764;51.430;6.840;2023-03-08T00:08:40;2.70;99.90
15328;DHT22;7764;51.430;6.840;2023-03-08T00:11:09;2.70;99.90
15328;DHT22;7764;51.430;6.840;2023-03-08T00:13:36;2.70;99.90
15328;DHT22;7764;51.430;6.840;2023-03-08T00:16:05;2.70;99.90
15328;DHT22;7764;51.430;6.840;2023-03-08T00:18:35;2.70;99.90
15328;DHT22;7764;51.430;6.840;2023-03-08T00:21:04;2.70;99.90
15328;DHT22;7764;51.430;6.840;2023-03-08T00:23:31;2.70;99.90
15328;DHT22;7764;51.430;6.840;2023-03-08T00:25:58;2.70;99.90
15328;DHT22;7764;51.430;6.840;2023-03-08T00:28:25;2.60;99.90
15328;DHT22;7764;51.430;6.840;2023-03-08T00:30:56;2.60;99.90
15328;DHT22;7764;51.430;6.840;2023-03-08T00:33:23;2.60;99.90
15328;DHT22;7764;51.430;6.840;2023-03-08T00:35:58;2.60;99.90
15328;DHT22;7764;51.430;6.840;2023-03-08T00:38:26;2.60;99.90
15328;DHT22;7764;51.430;6.840;2023-03-08T00:40:53;2.60;99.90
15328;DHT22;7764;51.430;6.840;2023-03-08T00:43:20;2.60;99.90
15328;DHT22;7764;51.430;6.840;2023-03-08T00:45:47;2.60;99.90
15328;DHT22;7764;51.430;6.840;2023-03-08T00:48:14;2.60;99.90
15328;DHT22;7764;51.430;6.840;2023-03-08T00:50:41;2.60;99.90
15328;DHT22;7764;51.430;6.840;2023-03-08T00:53:10;2.60;99.90
15328;DHT22;7764;51.430;6.840;2023-03-08T00:55:37;2.60;99.90
15328;DHT22;7764;51.430;6.840;2023-03-08T00:58:04;2.60;99.90
15328;DHT22;7764;51.430;6.840;2023-03-08T01:00:31;2.60;99.90
15328;DHT22;7764;51.430;6.840;2023-03-08T01:02:58;2.60;99.90
15328;DHT22;7764;51.430;6.840;2023-03-08T01:05:24;2.60;99.90
15328;DHT22;7764;51.430;6.840;2023-03-08T01:07:51;2.70;99.90
15328;DHT22;7764;51.430;6.840;2023-03-08T01:10:19;2.60;99.90
15328;DHT22;7764;51.430;6.840;2023-03-08T01:12:46;2.60;99.90
15328;DHT22;7764;51.430;6.840;2023-03-08T01:15:13;2.70;99.90
15328;DHT22;7764;51.430;6.840;2023-03-08T01:17:40;2.70;99.90
15328;DHT22;7764;51.430;6.840;2023-03-08T01:20:08;2.70;99.90
15328;DHT22;7764;51.430;6.840;2023-03-08T01:22:35;2.60;99.90
15328;DHT22;7764;51.430;6.840;2023-03-08T01:25:02;2.60;99.90
15328;DHT22;7764;51.430;6.840;2023-03-08T01:27:31;2.60;99.90
15328;DHT22;7764;51.430;6.840;2023-03-08T01:29:57;2.70;99.90
15328;DHT22;7764;51.430;6.840;2023-03-08T01:32:24;2.70;99.90
15328;DHT22;7764;51.430;6.840;2023-03-08T01:34:51;2.70;99.90
15328;DHT22;7764;51.430;6.840;2023-03-08T01:37:18;2.70;99.90
15328;DHT22;7764;51.430;6.840;2023-03-08T01:39:45;2.70;99.90
15328;DHT22;7764;51.430;6.840;2023-03-08T01:42:12;2.70;99.90
15328;DHT22;7764;51.430;6.840;2023-03-08T01:44:51;2.70;99.90
15328;DHT22;7764;51.430;6.840;2023-03-08T01:47:19;2.70;99.90
15328;DHT22;7764;51.430;6.840;2023-03-08T01:49:46;2.70;99.90
15328;DHT22;7764;51.430;6.840;2023-03-08T01:52:17;2.80;99.90
15328;DHT22;7764;51.430;6.840;2023-03-08T01:54:46;2.70;99.90
15328;DHT22;7764;51.430;6.840;2023-03-08T01:57:16;2.70;99.90
15328;DHT22;7764;51.430;6.840;2023-03-08T01:59:46;2.70;99.90
15328;DHT22;7764;51.430;6.840;2023-03-08T02:02:16;2.70;99.90
15328;DHT22;7764;51.430;6.840;2023-03-08T02:04:43;2.70;99.90
15328;DHT22;7764;51.430;6.840;2023-03-08T02:07:10;2.70;99.90
15328;DHT22;7764;51.430;6.840;2023-03-08T02:09:37;2.60;99.90
15328;DHT22;7764;51.430;6.840;2023-03-08T02:12:07;2.60;99.90
15328;DHT22;7764;51.430;6.840;2023-03-08T02:14:36;2.60;99.90
15328;DHT22;7764;51.430;6.840;2023-03-08T02:17:03;2.60;99.90
15328;DHT22;7764;51.430;6.840;2023-03-08T02:19:38;2.60;99.90
15328;DHT22;7764;51.430;6.840;2023-03-08T02:22:08;2.60;99.90
15328;DHT22;7764;51.430;6.840;2023-03-08T02:24:37;2.60;99.90
15328;DHT22;7764;51.430;6.840;2023-03-08T02:27:08;2.60;99.90
15328;DHT22;7764;51.430;6.840;2023-03-08T02:29:37;2.60;99.90
15328;DHT22;7764;51.430;6.840;2023-03-08T02:32:04;2.60;99.90
15328;DHT22;7764;51.430;6.840;2023-03-08T02:34:31;2.60;99.90
15328;DHT22;7764;51.430;6.840;2023-03-08T02:36:58;2.60;99.90
15328;DHT22;7764;51.430;6.840;2023-03-08T02:39:25;2.70;99.90
15328;DHT22;7764;51.430;6.840;2023-03-08T02:41:53;2.70;99.90
15328;DHT22;7764;51.430;6.840;2023-03-08T02:44:20;2.60;99.90
15328;DHT22;7764;51.430;6.840;2023-03-08T02:46:47;2.70;99.90
15328;DHT22;7764;51.430;6.840;2023-03-08T02:49:14;2.70;99.90
15328;DHT22;7764;51.430;6.840;2023-03-08T02:51:41;2.70;99.90
15328;DHT22;7764;51.430;6.840;2023-03-08T02:54:08;2.70;99.90
15328;DHT22;7764;51.430;6.840;2023-03-08T02:56:35;2.70;99.90
15328;DHT22;7764;51.430;6.840;2023-03-08T02:59:04;2.70;99.90
15328;DHT22;7764;51.430;6.840;2023-03-08T03:01:31;2.70;99.90
15328;DHT22;7764;51.430;6.840;2023-03-08T03:03:58;2.70;99.90
15328;DHT22;7764;51.430;6.840;2023-03-08T03:06:24;2.70;99.90
15328;DHT22;7764;51.430;6.840;2023-03-08T03:08:51;2.70;99.90
15328;DHT22;7764;51.430;6.840;2023-03-08T03:11:20;2.80;99.90
15328;DHT22;7764;51.430;6.840;2023-03-08T03:13:53;2.80;99.90
15328;DHT22;7764;51.430;6.840;2023-03-08T03:16:22;2.80;99.90
15328;DHT22;7764;51.430;6.840;2023-03-08T03:18:49;2.80;99.90
15328;DHT22;7764;51.430;6.840;2023-03-08T03:21:15;2.70;99.90
15328;DHT22;7764;51.430;6.840;2023-03-08T03:23:42;2.70;99.90
15328;DHT22;7764;51.430;6.840;2023-03-08T03:26:11;2.80;99.90
15328;DHT22;7764;51.430;6.840;2023-03-08T03:28:39;2.70;99.90
15328;DHT22;7764;51.430;6.840;2023-03-08T03:31:06;2.70;99.90
15328;DHT22;7764;51.430;6.840;2023-03-08T03:33:35;2.70;99.90
15328;DHT22;7764;51.430;6.840;2023-03-08T03:36:02;2.70;99.90
15328;DHT22;7764;51.430;6.840;2023-03-08T03:38:29;2.70;99.90
15328;DHT22;7764;51.430;6.840;2023-03-08T03:41:00;2.60;99.90
15328;DHT22;7764;51.430;6.840;2023-03-08T03:43:28;2.60;99.90
15328;DHT22;7764;51.430;6.840;2023-03-08T03:45:55;2.60;99.90
15328;DHT22;7764;51.430;6.840;2023-03-08T03:48:22;2.60;99.90
15328;DHT22;7764;51.430;6.840;2023-03-08T03:50:54;2.60;99.90
15328;DHT22;7764;51.430;6.840;2023-03-08T03:53:22;2.60;99.90
15328;DHT22;7764;51.430;6.840;2023-03-08T03:55:49;2.60;99.90
15328;DHT22;7764;51.430;6.840;2023-03-08T03:58:16;2.60;99.90
15328;DHT22;7764;51.430;6.840;2023-03-08T04:00:43;2.50;99.90
15328;DHT22;7764;51.430;6.840;2023-03-08T04:03:10;2.50;99.90
15328;DHT22;7764;51.430;6.840;2023-03-08T04:05:37;2.60;99.90
15328;DHT22;7764;51.430;6.840;2023-03-08T04:08:06;2.60;99.90
15328;DHT22;7764;51.430;6.840;2023-03-08T04:10:34;2.50;99.90
15328;DHT22;7764;51.430;6.840;2023-03-08T04:13:00;2.50;99.90
15328;DHT22;7764;51.430;6.840;2023-03-08T04:15:28;2.50;99.90
15328;DHT22;7764;51.430;6.840;2023-03-08T04:17:55;2.50;99.90
15328;DHT22;7764;51.430;6.840;2023-03-08T04:20:21;2.50;99.90
15328;DHT22;7764;51.430;6.840;2023-03-08T04:22:48;2.50;99.90
15328;DHT22;7764;51.430;6.840;2023-03-08T04:25:17;2.50;99.90
15328;DHT22;7764;51.430;6.840;2023-03-08T04:27:44;2.50;99.90
15328;DHT22;7764;51.430;6.840;2023-03-08T04:30:12;2.50;99.90
15328;DHT22;7764;51.430;6.840;2023-03-08T04:32:39;2.50;99.90
15328;DHT22;7764;51.430;6.840;2023-03-08T04:35:06;2.50;99.90
15328;DHT22;7764;51.430;6.840;2023-03-08T04:37:33;2.50;99.90
15328;DHT22;7764;51.430;6.840;2023-03-08T04:40:02;2.50;99.90
15328;DHT22;7764;51.430;6.840;2023-03-08T04:42:33;2.50;99.90
15328;DHT22;7764;51.430;6.840;2023-03-08T04:44:59;2.50;99.90
15328;DHT22;7764;51.430;6.840;2023-03-08T04:47:26;2.60;99.90
15328;DHT22;7764;51.430;6.840;2023-03-08T04:49:53;2.50;99.90
15328;DHT22;7764;51.430;6.840;2023-03-08T04:52:20;2.60;99.90
15328;DHT22;7764;51.430;6.840;2023-03-08T04:54:46;2.60;99.90
15328;DHT22;7764;51.430;6.840;2023-03-08T04:57:13;2.60;99.90
15328;DHT22;7764;51.430;6.840;2023-03-08T04:59:43;2.60;99.90
15328;DHT22;7764;51.430;6.840;2023-03-08T05:02:10;2.60;99.90
15328;DHT22;7764;51.430;6.840;2023-03-08T05:04:37;2.60;99.90
15328;DHT22;7764;51.430;6.840;2023-03-08T05:07:04;2.60;99.90
15328;DHT22;7764;51.430;6.840;2023-03-08T05:09:30;2.60;99.90
15328;DHT22;7764;51.430;6.840;2023-03-08T05:11:57;2.60;99.90
15328;DHT22;7764;51.430;6.840;2023-03-08T05:14:24;2.60;99.90
15328;DHT22;7764;51.430;6.840;2023-03-08T05:16:55;2.60;99.90
15328;DHT22;7764;51.430;6.840;2023-03-08T05:19:22;2.60;99.90
15328;DHT22;7764;51.430;6.840;2023-03-08T05:21:49;2.60;99.90
15328;DHT22;7764;51.430;6.840;2023-03-08T05:24:15;2.60;99.90
15328;DHT22;7764;51.430;6.840;2023-03-08T05:26:42;2.60;99.90
15328;DHT22;7764;51.430;6.840;2023-03-08T05:29:09;2.60;99.90
15328;DHT22;7764;51.430;6.840;2023-03-08T05:31:36;2.60;99.90
15328;DHT22;7764;51.430;6.840;2023-03-08T05:34:05;2.50;99.90
15328;DHT22;7764;51.430;6.840;2023-03-08T05:36:34;2.50;99.90
15328;DHT22;7764;51.430;6.840;2023-03-08T05:39:01;2.60;99.90
15328;DHT22;7764;51.430;6.840;2023-03-08T05:41:28;2.50;99.90
15328;DHT22;7764;51.430;6.840;2023-03-08T05:43:55;2.60;99.90
15328;DHT22;7764;51.430;6.840;2023-03-08T05:46:23;2.60;99.90
15328;DHT22;7764;51.430;6.840;2023-03-08T05:48:49;2.50;99.90
15328;DHT22;7764;51.430;6.840;2023-03-08T05:51:18;2.50;99.90
15328;DHT22;7764;51.430;6.840;2023-03-08T05:53:45;2.60;99.90
15328;DHT22;7764;51.430;6.840;2023-03-08T05:56:14;2.50;99.90
15328;DHT22;7764;51.430;6.840;2023-03-08T05:58:41;2.60;99.90
15328;DHT22;7764;51.430;6.840;2023-03-08T06:01:10;2.50;99.90
15328;DHT22;7764;51.430;6.840;2023-03-08T06:03:37;2.50;99.90
15328;DHT22;7764;51.430;6.840;2023-03-08T06:06:04;2.40;99.90
15328;DHT22;7764;51.430;6.840;2023-03-08T06:08:33;2.40;99.90
15328;DHT22;7764;51.430;6.840;2023-03-08T06:10:59;2.40;99.90
15328;DHT22;7764;51.430;6.840;2023-03-08T06:13:26;2.30;99.90
15328;DHT22;7764;51.430;6.840;2023-03-08T06:15:54;2.30;99.90
15328;DHT22;7764;51.430;6.840;2023-03-08T06:18:22;2.40;99.90
15328;DHT22;7764;51.430;6.840;2023-03-08T06:21:00;2.40;99.90
15328;DHT22;7764;51.430;6.840;2023-03-08T06:23:28;2.30;99.90
15328;DHT22;7764;51.430;6.840;2023-03-08T06:25:57;2.30;99.90
15328;DHT22;7764;51.430;6.840;2023-03-08T06:28:25;2.30;99.90
15328;DHT22;7764;51.430;6.840;2023-03-08T06:30:52;2.30;99.90
15328;DHT22;7764;51.430;6.840;2023-03-08T06:33:21;2.20;99.90
15328;DHT22;7764;51.430;6.840;2023-03-08T06:35:55;2.20;99.90
15328;DHT22;7764;51.430;6.840;2023-03-08T06:38:22;2.20;99.90
15328;DHT22;7764;51.430;6.840;2023-03-08T06:40:49;2.20;99.90
15328;DHT22;7764;51.430;6.840;2023-03-08T06:43:17;2.20;99.90
15328;DHT22;7764;51.430;6.840;2023-03-08T06:45:44;2.10;99.90
15328;DHT22;7764;51.430;6.840;2023-03-08T06:48:11;2.10;99.90
15328;DHT22;7764;51.430;6.840;2023-03-08T06:50:38;2.20;99.90
15328;DHT22;7764;51.430;6.840;2023-03-08T06:53:06;2.20;99.90
15328;DHT22;7764;51.430;6.840;2023-03-08T06:55:34;2.10;99.90
15328;DHT22;7764;51.430;6.840;2023-03-08T06:58:00;2.10;99.90
15328;DHT22;7764;51.430;6.840;2023-03-08T07:00:29;2.10;99.90
15328;DHT22;7764;51.430;6.840;2023-03-08T07:02:56;2.20;99.90
15328;DHT22;7764;51.430;6.840;2023-03-08T07:05:23;2.20;99.90
15328;DHT22;7764;51.430;6.840;2023-03-08T07:07:49;2.20;99.90
15328;DHT22;7764;51.430;6.840;2023-03-08T07:10:17;2.20;99.90
15328;DHT22;7764;51.430;6.840;2023-03-08T07:12:46;2.20;99.90
15328;DHT22;7764;51.430;6.840;2023-03-08T07:15:16;2.20;99.90
15328;DHT22;7764;51.430;6.840;2023-03-08T07:17:45;2.20;99.90
15328;DHT22;7764;51.430;6.840;2023-03-08T07:20:14;2.20;99.90
15328;DHT22;7764;51.430;6.840;2023-03-08T07:22:42;2.10;99.90
15328;DHT22;7764;51.430;6.840;2023-03-08T07:25:10;2.20;99.90
15328;DHT22;7764;51.430;6.840;2023-03-08T07:27:37;2.20;99.90
15328;DHT22;7764;51.430;6.840;2023-03-08T07:30:05;2.30;99.90
15328;DHT22;7764;51.430;6.840;2023-03-08T07:32:34;2.30;99.90
15328;DHT22;7764;51.430;6.840;2023-03-08T07:35:03;2.40;99.90
15328;DHT22;7764;51.430;6.840;2023-03-08T07:37:29;2.30;99.90
15328;DHT22;7764;51.430;6.840;2023-03-08T07:39:56;2.20;99.90
15328;DHT22;7764;51.430;6.840;2023-03-08T07:42:23;2.20;99.90
15328;DHT22;7764;51.430;6.840;2023-03-08T07:44:51;2.20;99.90
15328;DHT22;7764;51.430;6.840;2023-03-08T07:47:18;2.20;99.90
15328;DHT22;7764;51.430;6.840;2023-03-08T07:49:45;2.10;99.90
15328;DHT22;7764;51.430;6.840;2023-03-08T07:52:14;2.20;99.90
15328;DHT22;7764;51.430;6.840;2023-03-08T07:54:41;2.30;99.90
15328;DHT22;7764;51.430;6.840;2023-03-08T07:57:11;2.20;99.90
15328;DHT22;7764;51.430;6.840;2023-03-08T07:59:38;2.20;99.90
15328;DHT22;7764;51.430;6.840;2023-03-08T08:02:05;2.20;99.90
15328;DHT22;7764;51.430;6.840;2023-03-08T08:04:33;2.20;99.90
15328;DHT22;7764;51.430;6.840;2023-03-08T08:07:00;2.10;99.90
15328;DHT22;7764;51.430;6.840;2023-03-08T08:09:29;2.10;99.90
15328;DHT22;7764;51.430;6.840;2023-03-08T08:11:56;2.10;99.90
15328;DHT22;7764;51.430;6.840;2023-03-08T08:14:23;2.20;99.90
15328;DHT22;7764;51.430;6.840;2023-03-08T08:16:50;2.10;99.90
15328;DHT22;7764;51.430;6.840;2023-03-08T08:19:17;2.10;99.90
15328;DHT22;7764;51.430;6.840;2023-03-08T08:21:43;2.10;99.90
15328;DHT22;7764;51.430;6.840;2023-03-08T08:24:11;2.10;99.90
15328;DHT22;7764;51.430;6.840;2023-03-08T08:26:39;2.10;99.90
15328;DHT22;7764;51.430;6.840;2023-03-08T08:29:06;2.20;99.90
15328;DHT22;7764;51.430;6.840;2023-03-08T08:31:33;2.10;99.90
15328;DHT22;7764;51.430;6.840;2023-03-08T08:34:00;2.20;99.90
15328;DHT22;7764;51.430;6.840;2023-03-08T08:36:27;2.10;99.90
15328;DHT22;7764;51.430;6.840;2023-03-08T08:38:54;2.00;99.90
15328;DHT22;7764;51.430;6.840;2023-03-08T08:41:22;2.00;99.90
15328;DHT22;7764;51.430;6.840;2023-03-08T08:43:51;2.00;99.90
15328;DHT22;7764;51.430;6.840;2023-03-08T08:46:21;2.00;99.90
15328;DHT22;7764;51.430;6.840;2023-03-08T08:48:48;2.10;99.90
15328;DHT22;7764;51.430;6.840;2023-03-08T08:51:14;2.10;99.90
15328;DHT22;7764;51.430;6.840;2023-03-08T08:53:42;2.20;99.90
15328;DHT22;7764;51.430;6.840;2023-03-08T08:56:11;2.20;99.90
15328;DHT22;7764;51.430;6.840;2023-03-08T08:58:38;2.20;99.90
15328;DHT22;7764;51.430;6.840;2023-03-08T09:01:13;2.20;99.90
15328;DHT22;7764;51.430;6.840;2023-03-08T09:03:40;2.20;99.90
15328;DHT22;7764;51.430;6.840;2023-03-08T09:06:07;2.20;99.90
15328;DHT22;7764;51.430;6.840;2023-03-08T09:08:34;2.20;99.90
15328;DHT22;7764;51.430;6.840;2023-03-08T09:11:02;2.20;99.90
15328;DHT22;7764;51.430;6.840;2023-03-08T09:13:29;2.20;99.90
15328;DHT22;7764;51.430;6.840;2023-03-08T09:15:56;2.30;99.90
15328;DHT22;7764;51.430;6.840;2023-03-08T09:18:25;2.30;99.90
15328;DHT22;7764;51.430;6.840;2023-03-08T09:20:52;2.30;99.90
15328;DHT22;7764;51.430;6.840;2023-03-08T09:23:19;2.30;99.90
15328;DHT22;7764;51.430;6.840;2023-03-08T09:25:54;2.30;99.90
15328;DHT22;7764;51.430;6.840;2023-03-08T09:28:21;2.30;99.90
15328;DHT22;7764;51.430;6.840;2023-03-08T09:30:47;2.40;99.90
15328;DHT22;7764;51.430;6.840;2023-03-08T09:33:14;2.40;99.90
15328;DHT22;7764;51.430;6.840;2023-03-08T09:35:42;2.40;99.90
15328;DHT22;7764;51.430;6.840;2023-03-08T09:38:09;2.40;99.90
15328;DHT22;7764;51.430;6.840;2023-03-08T09:40:44;2.40;99.90
15328;DHT22;7764;51.430;6.840;2023-03-08T09:43:21;2.40;99.90
15328;DHT22;7764;51.430;6.840;2023-03-08T09:45:53;2.40;99.90
15328;DHT22;7764;51.430;6.840;2023-03-08T09:48:23;2.30;99.90
15328;DHT22;7764;51.430;6.840;2023-03-08T09:50:57;2.30;99.90
15328;DHT22;7764;51.430;6.840;2023-03-08T09:53:29;2.20;99.90
15328;DHT22;7764;51.430;6.840;2023-03-08T09:56:02;2.30;99.90
15328;DHT22;7764;51.430;6.840;2023-03-08T09:58:39;2.30;99.90
15328;DHT22;7764;51.430;6.840;2023-03-08T10:01:19;2.40;99.90
15328;DHT22;7764;51.430;6.840;2023-03-08T10:04:17;2.50;99.90
15328;DHT22;7764;51.430;6.840;2023-03-08T10:06:56;2.40;99.90
15328;DHT22;7764;51.430;6.840;2023-03-08T10:09:30;2.60;99.90
15328;DHT22;7764;51.430;6.840;2023-03-08T10:12:02;2.60;99.90
15328;DHT22;7764;51.430;6.840;2023-03-08T10:14:38;2.60;99.90
15328;DHT22;7764;51.430;6.840;2023-03-08T10:17:10;2.60;99.90
15328;DHT22;7764;51.430;6.840;2023-03-08T10:19:40;2.60;99.90
15328;DHT22;7764;51.430;6.840;2023-03-08T10:22:15;2.60;99.90
15328;DHT22;7764;51.430;6.840;2023-03-08T10:24:49;2.60;99.90
15328;DHT22;7764;51.430;6.840;2023-03-08T10:27:20;2.70;99.90
15328;DHT22;7764;51.430;6.840;2023-03-08T10:29:49;2.70;99.90
15328;DHT22;7764;51.430;6.840;2023-03-08T10:32:17;2.80;99.90
15328;DHT22;7764;51.430;6.840;2023-03-08T10:34:44;2.90;99.90
15328;DHT22;7764;51.430;6.840;2023-03-08T10:37:13;3.00;99.90
15328;DHT22;7764;51.430;6.840;2023-03-08T10:39:49;3.00;99.90
15328;DHT22;7764;51.430;6.840;2023-03-08T10:42:19;3.10;99.90
15328;DHT22;7764;51.430;6.840;2023-03-08T10:44:53;3.10;99.90
15328;DHT22;7764;51.430;6.840;2023-03-08T10:47:22;3.20;99.90
15328;DHT22;7764;51.430;6.840;2023-03-08T10:50:08;3.20;99.90
15328;DHT22;7764;51.430;6.840;2023-03-08T10:52:38;3.30;99.90
15328;DHT22;7764;51.430;6.840;2023-03-08T10:55:09;3.20;99.90
15328;DHT22;7764;51.430;6.840;2023-03-08T10:57:36;3.30;99.90
15328;DHT22;7764;51.430;6.840;2023-03-08T11:00:20;3.30;99.90
15328;DHT22;7764;51.430;6.840;2023-03-08T11:02:48;3.40;99.90
15328;DHT22;7764;51.430;6.840;2023-03-08T11:05:18;3.50;99.90
15328;DHT22;7764;51.430;6.840;2023-03-08T11:07:51;3.40;99.90
15328;DHT22;7764;51.430;6.840;2023-03-08T11:10:21;3.50;99.90
15328;DHT22;7764;51.430;6.840;2023-03-08T11:12:49;3.40;99.90
15328;DHT22;7764;51.430;6.840;2023-03-08T11:15:27;3.30;99.90
15328;DHT22;7764;51.430;6.840;2023-03-08T11:18:02;3.30;99.90
15328;DHT22;7764;51.430;6.840;2023-03-08T11:20:34;3.20;99.90
15328;DHT22;7764;51.430;6.840;2023-03-08T11:23:14;3.20;99.90
15328;DHT22;7764;51.430;6.840;2023-03-08T11:25:46;3.10;99.90
15328;DHT22;7764;51.430;6.840;2023-03-08T11:28:42;3.10;99.90
15328;DHT22;7764;51.430;6.840;2023-03-08T11:31:14;3.20;99.90
15328;DHT22;7764;51.430;6.840;2023-03-08T11:34:20;3.10;99.90
15328;DHT22;7764;51.430;6.840;2023-03-08T11:36:54;3.20;99.90
15328;DHT22;7764;51.430;6.840;2023-03-08T11:39:28;3.10;99.90
15328;DHT22;7764;51.430;6.840;2023-03-08T11:41:59;3.10;99.90
15328;DHT22;7764;51.430;6.840;2023-03-08T11:44:40;3.10;99.90
15328;DHT22;7764;51.430;6.840;2023-03-08T11:47:56;3.20;99.90
15328;DHT22;7764;51.430;6.840;2023-03-08T11:50:27;3.10;99.90
15328;DHT22;7764;51.430;6.840;2023-03-08T11:53:03;3.20;99.90
15328;DHT22;7764;51.430;6.840;2023-03-08T11:55:46;3.00;99.90
15328;DHT22;7764;51.430;6.840;2023-03-08T11:58:25;3.10;99.90
15328;DHT22;7764;51.430;6.840;2023-03-08T12:00:58;3.10;99.90
15328;DHT22;7764;51.430;6.840;2023-03-08T12:03:29;3.10;99.90
15328;DHT22;7764;51.430;6.840;2023-03-08T12:05:59;3.10;99.90
15328;DHT22;7764;51.430;6.840;2023-03-08T12:08:32;3.10;99.90
15328;DHT22;7764;51.430;6.840;2023-03-08T12:11:04;3.20;99.90
15328;DHT22;7764;51.430;6.840;2023-03-08T12:13:33;3.30;99.90
15328;DHT22;7764;51.430;6.840;2023-03-08T12:16:06;3.20;99.90
15328;DHT22;7764;51.430;6.840;2023-03-08T12:18:36;3.30;99.90
15328;DHT22;7764;51.430;6.840;2023-03-08T12:21:15;3.30;99.90
15328;DHT22;7764;51.430;6.840;2023-03-08T12:23:49;3.30;99.90
15328;DHT22;7764;51.430;6.840;2023-03-08T12:26:24;3.30;99.90
15328;DHT22;7764;51.430;6.840;2023-03-08T12:28:56;3.40;99.90
15328;DHT22;7764;51.430;6.840;2023-03-08T12:31:26;3.30;99.90
15328;DHT22;7764;51.430;6.840;2023-03-08T12:33:55;3.40;99.90
15328;DHT22;7764;51.430;6.840;2023-03-08T12:36:36;3.30;99.90
15328;DHT22;7764;51.430;6.840;2023-03-08T12:39:08;3.30;99.90
15328;DHT22;7764;51.430;6.840;2023-03-08T12:41:36;3.30;99.90
15328;DHT22;7764;51.430;6.840;2023-03-08T12:44:04;3.30;99.90
15328;DHT22;7764;51.430;6.840;2023-03-08T12:46:45;3.40;99.90
15328;DHT22;7764;51.430;6.840;2023-03-08T12:49:21;3.40;99.90
15328;DHT22;7764;51.430;6.840;2023-03-08T12:51:57;3.40;99.90
15328;DHT22;7764;51.430;6.840;2023-03-08T12:54:28;3.40;99.90
15328;DHT22;7764;51.430;6.840;2023-03-08T12:56:57;3.50;99.90
15328;DHT22;7764;51.430;6.840;2023-03-08T12:59:32;3.50;99.90
15328;DHT22;7764;51.430;6.840;2023-03-08T13:02:20;3.60;99.90
15328;DHT22;7764;51.430;6.840;2023-03-08T13:04:48;3.60;99.90
15328;DHT22;7764;51.430;6.840;2023-03-08T13:07:23;3.60;99.90
15328;DHT22;7764;51.430;6.840;2023-03-08T13:09:56;3.60;99.90
15328;DHT22;7764;51.430;6.840;2023-03-08T13:12:39;3.60;99.90
15328;DHT22;7764;51.430;6.840;2023-03-08T13:15:21;3.70;99.90
15328;DHT22;7764;51.430;6.840;2023-03-08T13:17:50;3.80;99.90
15328;DHT22;7764;51.430;6.840;2023-03-08T13:20:20;3.80;99.90
15328;DHT22;7764;51.430;6.840;2023-03-08T13:22:57;3.80;99.90
15328;DHT22;7764;51.430;6.840;2023-03-08T13:25:38;3.70;99.90
15328;DHT22;7764;51.430;6.840;2023-03-08T13:28:09;3.70;99.90
15328;DHT22;7764;51.430;6.840;2023-03-08T13:30:41;3.70;99.90
15328;DHT22;7764;51.430;6.840;2023-03-08T13:33:12;3.70;99.90
15328;DHT22;7764;51.430;6.840;2023-03-08T13:35:40;3.70;99.90
15328;DHT22;7764;51.430;6.840;2023-03-08T13:38:15;3.70;99.90
15328;DHT22;7764;51.430;6.840;2023-03-08T13:40:49;3.80;99.90
15328;DHT22;7764;51.430;6.840;2023-03-08T13:43:20;3.70;99.90
15328;DHT22;7764;51.430;6.840;2023-03-08T13:45:47;3.70;99.90
15328;DHT22;7764;51.430;6.840;2023-03-08T13:48:14;3.70;99.90
15328;DHT22;7764;51.430;6.840;2023-03-08T13:50:43;3.80;99.90
15328;DHT22;7764;51.430;6.840;2023-03-08T13:53:15;3.70;99.90
15328;DHT22;7764;51.430;6.840;2023-03-08T13:55:44;3.70;99.90
15328;DHT22;7764;51.430;6.840;2023-03-08T13:58:23;3.70;99.90
15328;DHT22;7764;51.430;6.840;2023-03-08T14:00:58;3.70;99.90
15328;DHT22;7764;51.430;6.840;2023-03-08T14:03:27;3.80;99.90
15328;DHT22;7764;51.430;6.840;2023-03-08T14:05:54;3.70;99.90
15328;DHT22;7764;51.430;6.840;2023-03-08T14:08:23;3.70;99.90
15328;DHT22;7764;51.430;6.840;2023-03-08T14:10:52;3.80;99.90
15328;DHT22;7764;51.430;6.840;2023-03-08T14:13:25;3.70;99.90
15328;DHT22;7764;51.430;6.840;2023-03-08T14:15:54;3.60;99.90
15328;DHT22;7764;51.430;6.840;2023-03-08T14:18:23;3.60;99.90
15328;DHT22;7764;51.430;6.840;2023-03-08T14:21:05;3.60;99.90
15328;DHT22;7764;51.430;6.840;2023-03-08T14:23:38;3.60;99.90
15328;DHT22;7764;51.430;6.840;2023-03-08T14:26:28;3.70;99.90
15328;DHT22;7764;51.430;6.840;2023-03-08T14:29:11;3.70;99.90
15328;DHT22;7764;51.430;6.840;2023-03-08T14:31:39;3.70;99.90
15328;DHT22;7764;51.430;6.840;2023-03-08T14:34:19;3.80;99.90
15328;DHT22;7764;51.430;6.840;2023-03-08T14:36:52;3.70;99.90
15328;DHT22;7764;51.430;6.840;2023-03-08T14:39:19;3.80;99.90
15328;DHT22;7764;51.430;6.840;2023-03-08T14:41:46;3.80;99.90
15328;DHT22;7764;51.430;6.840;2023-03-08T14:44:19;3.70;99.90
15328;DHT22;7764;51.430;6.840;2023-03-08T14:46:46;3.70;99.90
15328;DHT22;7764;51.430;6.840;2023-03-08T14:49:20;3.70;99.90
15328;DHT22;7764;51.430;6.840;2023-03-08T14:51:48;3.70;99.90
15328;DHT22;7764;51.430;6.840;2023-03-08T14:54:28;3.70;99.90
15328;DHT22;7764;51.430;6.840;2023-03-08T14:56:56;3.70;99.90
15328;DHT22;7764;51.430;6.840;2023-03-08T14:59:24;3.60;99.90
15328;DHT22;7764;51.430;6.840;2023-03-08T15:01:51;3.60;99.90
15328;DHT22;7764;51.430;6.840;2023-03-08T15:04:19;3.70;99.90
15328;DHT22;7764;51.430;6.840;2023-03-08T15:06:47;3.80;99.90
15328;DHT22;7764;51.430;6.840;2023-03-08T15:09:17;3.80;99.90
15328;DHT22;7764;51.430;6.840;2023-03-08T15:11:46;3.70;99.90
15328;DHT22;7764;51.430;6.840;2023-03-08T15:14:14;3.70;99.90
15328;DHT22;7764;51.430;6.840;2023-03-08T15:16:43;3.70;99.90
15328;DHT22;7764;51.430;6.840;2023-03-08T15:19:10;3.70;99.90
15328;DHT22;7764;51.430;6.840;2023-03-08T15:21:38;3.70;99.90
15328;DHT22;7764;51.430;6.840;2023-03-08T15:24:06;3.70;99.90
15328;DHT22;7764;51.430;6.840;2023-03-08T15:26:33;3.70;99.90
15328;DHT22;7764;51.430;6.840;2023-03-08T15:29:00;3.70;99.90
15328;DHT22;7764;51.430;6.840;2023-03-08T15:31:28;3.60;99.90
15328;DHT22;7764;51.430;6.840;2023-03-08T15:33:57;3.70;99.90
15328;DHT22;7764;51.430;6.840;2023-03-08T15:36:24;3.60;99.90
15328;DHT22;7764;51.430;6.840;2023-03-08T15:38:51;3.70;99.90
15328;DHT22;7764;51.430;6.840;2023-03-08T15:41:18;3.80;99.90
15328;DHT22;7764;51.430;6.840;2023-03-08T15:43:45;3.70;99.90
15328;DHT22;7764;51.430;6.840;2023-03-08T15:46:12;3.70;99.90
15328;DHT22;7764;51.430;6.840;2023-03-08T15:48:40;3.60;99.90
15328;DHT22;7764;51.430;6.840;2023-03-08T15:51:15;3.70;99.90
15328;DHT22;7764;51.430;6.840;2023-03-08T15:53:43;3.70;99.90
15328;DHT22;7764;51.430;6.840;2023-03-08T15:56:10;3.70;99.90
15328;DHT22;7764;51.430;6.840;2023-03-08T15:58:37;3.70;99.90
15328;DHT22;7764;51.430;6.840;2023-03-08T16:01:04;3.70;99.90
15328;DHT22;7764;51.430;6.840;2023-03-08T16:03:31;3.70;99.90
15328;DHT22;7764;51.430;6.840;2023-03-08T16:05:59;3.60;99.90
15328;DHT22;7764;51.430;6.840;2023-03-08T16:08:28;3.60;99.90
15328;DHT22;7764;51.430;6.840;2023-03-08T16:10:55;3.60;99.90
15328;DHT22;7764;51.430;6.840;2023-03-08T16:13:28;3.60;99.90
15328;DHT22;7764;51.430;6.840;2023-03-08T16:15:57;3.70;99.90
15328;DHT22;7764;51.430;6.840;2023-03-08T16:18:24;3.60;99.90